Hightstown, New Jersey
Current Conditions -  °F | °C
As of 11:53 PM on Wednesday 22 Oct 2014 (Local Time) from KTTN Reporting Station
Moderate Rain Moderate Rain  
Wind Chill: 11°   Ceiling: 2600
Heat Index: 11°   Visibility: 7mi
Dew Point:   Wind: 15mph
Humidity: 83%   Direction: 350°N
Pressure: 29.76"   Gusts: 23mph
Location:  40.27°N, 74.52°W
Report Text: KTTN 230353Z AUTO 35013G20KT 7SM RA OVC026 11/08 A2976 RMK AO2 SLP071 P0005 T01110083
Loading
Personal Weather Stations






























Interactive Weather Map
Tropical Storm Tracking
New forecast layout! Learn more

10-Day Weather Forecast

Advertisements
Track Severe Weather on mobile